sensor_id;sensor_type;location;lat;lon;timestamp;pressure;altitude;pressure_sealevel;temperature;humidity
11114;BME280;5610;52.154;9.198;2023-05-03T00:01:24;101984.09;;;7.33;100.00
11114;BME280;5610;52.154;9.198;2023-05-03T00:04:09;101992.09;;;7.30;100.00
11114;BME280;5610;52.154;9.198;2023-05-03T00:06:54;101979.91;;;7.23;100.00
11114;BME280;5610;52.154;9.198;2023-05-03T00:09:39;101993.28;;;7.19;100.00
11114;BME280;5610;52.154;9.198;2023-05-03T00:12:24;101986.22;;;7.19;100.00
11114;BME280;5610;52.154;9.198;2023-05-03T00:15:10;101991.84;;;7.07;100.00
11114;BME280;5610;52.154;9.198;2023-05-03T00:17:56;101985.72;;;7.03;100.00
11114;BME280;5610;52.154;9.198;2023-05-03T00:20:42;102001.63;;;7.03;100.00
11114;BME280;5610;52.154;9.198;2023-05-03T00:23:27;101985.88;;;6.99;100.00
11114;BME280;5610;52.154;9.198;2023-05-03T00:26:12;101995.53;;;7.00;100.00
11114;BME280;5610;52.154;9.198;2023-05-03T00:28:58;101988.47;;;7.00;100.00
11114;BME280;5610;52.154;9.198;2023-05-03T00:31:44;101980.81;;;6.88;100.00
11114;BME280;5610;52.154;9.198;2023-05-03T00:34:30;101981.56;;;6.93;100.00
11114;BME280;5610;52.154;9.198;2023-05-03T00:37:15;101976.69;;;6.76;100.00
11114;BME280;5610;52.154;9.198;2023-05-03T00:40:00;101989.28;;;6.67;100.00
11114;BME280;5610;52.154;9.198;2023-05-03T00:42:47;101991.16;;;6.63;100.00
11114;BME280;5610;52.154;9.198;2023-05-03T00:45:33;101987.59;;;6.64;100.00
11114;BME280;5610;52.154;9.198;2023-05-03T00:48:18;101986.19;;;6.49;100.00
11114;BME280;5610;52.154;9.198;2023-05-03T00:51:05;101976.47;;;6.48;100.00
11114;BME280;5610;52.154;9.198;2023-05-03T00:53:51;101987.13;;;6.45;100.00
11114;BME280;5610;52.154;9.198;2023-05-03T00:56:36;101994.47;;;6.32;100.00
11114;BME280;5610;52.154;9.198;2023-05-03T00:59:23;101984.16;;;6.22;100.00
11114;BME280;5610;52.154;9.198;2023-05-03T01:02:08;101992.25;;;6.14;100.00
11114;BME280;5610;52.154;9.198;2023-05-03T01:04:54;101988.78;;;6.11;100.00
11114;BME280;5610;52.154;9.198;2023-05-03T01:07:46;101992.56;;;5.99;100.00
11114;BME280;5610;52.154;9.198;2023-05-03T01:10:41;101992.50;;;6.02;100.00
11114;BME280;5610;52.154;9.198;2023-05-03T01:13:37;101997.06;;;5.95;100.00
11114;BME280;5610;52.154;9.198;2023-05-03T01:16:30;101998.13;;;5.84;100.00
11114;BME280;5610;52.154;9.198;2023-05-03T01:19:35;101991.94;;;5.85;100.00
11114;BME280;5610;52.154;9.198;2023-05-03T01:22:26;101993.75;;;5.83;100.00
11114;BME280;5610;52.154;9.198;2023-05-03T01:25:17;101989.72;;;5.63;100.00
11114;BME280;5610;52.154;9.198;2023-05-03T01:28:02;101989.94;;;5.53;100.00
11114;BME280;5610;52.154;9.198;2023-05-03T01:30:49;101996.81;;;5.61;100.00
11114;BME280;5610;52.154;9.198;2023-05-03T01:33:43;101995.97;;;5.61;100.00
11114;BME280;5610;52.154;9.198;2023-05-03T01:36:33;101994.13;;;5.64;100.00
11114;BME280;5610;52.154;9.198;2023-05-03T01:39:22;101991.56;;;5.60;100.00
11114;BME280;5610;52.154;9.198;2023-05-03T01:42:10;101990.88;;;5.50;100.00
11114;BME280;5610;52.154;9.198;2023-05-03T01:44:57;101996.19;;;5.48;100.00
11114;BME280;5610;52.154;9.198;2023-05-03T01:47:46;102012.16;;;5.42;100.00
11114;BME280;5610;52.154;9.198;2023-05-03T01:50:32;101997.66;;;5.17;100.00
11114;BME280;5610;52.154;9.198;2023-05-03T01:53:17;102004.38;;;5.35;100.00
11114;BME280;5610;52.154;9.198;2023-05-03T01:56:03;102001.16;;;5.17;100.00
11114;BME280;5610;52.154;9.198;2023-05-03T01:58:52;101998.41;;;5.23;100.00
11114;BME280;5610;52.154;9.198;2023-05-03T02:01:37;102001.94;;;5.24;100.00
11114;BME280;5610;52.154;9.198;2023-05-03T02:04:22;101997.50;;;5.24;100.00
11114;BME280;5610;52.154;9.198;2023-05-03T02:07:09;102003.97;;;5.07;100.00
11114;BME280;5610;52.154;9.198;2023-05-03T02:09:54;102002.13;;;5.12;100.00
11114;BME280;5610;52.154;9.198;2023-05-03T02:12:39;102005.78;;;5.05;100.00
11114;BME280;5610;52.154;9.198;2023-05-03T02:15:26;102012.03;;;5.01;100.00
11114;BME280;5610;52.154;9.198;2023-05-03T02:18:12;102011.13;;;5.02;100.00
11114;BME280;5610;52.154;9.198;2023-05-03T02:20:56;102010.97;;;5.11;100.00
11114;BME280;5610;52.154;9.198;2023-05-03T02:23:42;102014.47;;;5.11;100.00
11114;BME280;5610;52.154;9.198;2023-05-03T02:26:27;102027.94;;;4.96;100.00
11114;BME280;5610;52.154;9.198;2023-05-03T02:29:12;102026.94;;;5.03;100.00
11114;BME280;5610;52.154;9.198;2023-05-03T02:31:58;102038.44;;;5.01;100.00
11114;BME280;5610;52.154;9.198;2023-05-03T02:34:46;102039.59;;;4.83;100.00
11114;BME280;5610;52.154;9.198;2023-05-03T02:37:36;102038.78;;;4.79;100.00
11114;BME280;5610;52.154;9.198;2023-05-03T02:40:26;102037.75;;;4.88;100.00
11114;BME280;5610;52.154;9.198;2023-05-03T02:43:13;102038.84;;;4.75;100.00
11114;BME280;5610;52.154;9.198;2023-05-03T02:45:58;102042.66;;;4.55;100.00
11114;BME280;5610;52.154;9.198;2023-05-03T02:48:45;102041.63;;;4.64;100.00
11114;BME280;5610;52.154;9.198;2023-05-03T02:51:30;102039.88;;;4.63;100.00
11114;BME280;5610;52.154;9.198;2023-05-03T02:54:15;102042.72;;;4.49;100.00
11114;BME280;5610;52.154;9.198;2023-05-03T02:57:01;102040.78;;;4.62;100.00
11114;BME280;5610;52.154;9.198;2023-05-03T02:59:47;102048.00;;;4.49;100.00
11114;BME280;5610;52.154;9.198;2023-05-03T03:02:32;102045.16;;;4.63;100.00
11114;BME280;5610;52.154;9.198;2023-05-03T03:05:18;102053.19;;;4.55;100.00
11114;BME280;5610;52.154;9.198;2023-05-03T03:08:06;102045.25;;;4.58;100.00
11114;BME280;5610;52.154;9.198;2023-05-03T03:10:51;102041.72;;;4.59;100.00
11114;BME280;5610;52.154;9.198;2023-05-03T03:13:37;102040.81;;;4.60;100.00
11114;BME280;5610;52.154;9.198;2023-05-03T03:16:24;102041.66;;;4.62;100.00
11114;BME280;5610;52.154;9.198;2023-05-03T03:19:10;102037.38;;;4.55;100.00
11114;BME280;5610;52.154;9.198;2023-05-03T03:21:57;102045.44;;;4.45;100.00
11114;BME280;5610;52.154;9.198;2023-05-03T03:24:44;102044.72;;;4.32;100.00
11114;BME280;5610;52.154;9.198;2023-05-03T03:27:30;102039.28;;;4.43;100.00
11114;BME280;5610;52.154;9.198;2023-05-03T03:30:16;102045.50;;;4.40;100.00
11114;BME280;5610;52.154;9.198;2023-05-03T03:33:12;102044.81;;;4.26;100.00
11114;BME280;5610;52.154;9.198;2023-05-03T03:35:59;102040.44;;;4.25;100.00
11114;BME280;5610;52.154;9.198;2023-05-03T03:38:50;102049.34;;;4.14;100.00
11114;BME280;5610;52.154;9.198;2023-05-03T03:41:36;102043.03;;;4.28;100.00
11114;BME280;5610;52.154;9.198;2023-05-03T03:44:22;102044.75;;;4.29;100.00
11114;BME280;5610;52.154;9.198;2023-05-03T03:47:07;102038.56;;;4.33;100.00
11114;BME280;5610;52.154;9.198;2023-05-03T03:49:53;102037.81;;;4.22;100.00
11114;BME280;5610;52.154;9.198;2023-05-03T03:52:38;102038.59;;;4.30;100.00
11114;BME280;5610;52.154;9.198;2023-05-03T03:55:26;102038.75;;;4.18;100.00
11114;BME280;5610;52.154;9.198;2023-05-03T03:58:12;102040.31;;;4.34;100.00
11114;BME280;5610;52.154;9.198;2023-05-03T04:00:58;102039.50;;;4.27;100.00
11114;BME280;5610;52.154;9.198;2023-05-03T04:03:45;102034.34;;;4.20;100.00
11114;BME280;5610;52.154;9.198;2023-05-03T04:06:31;102036.03;;;4.22;100.00
11114;BME280;5610;52.154;9.198;2023-05-03T04:09:20;102042.28;;;4.18;100.00
11114;BME280;5610;52.154;9.198;2023-05-03T04:12:06;102039.72;;;4.12;100.00
11114;BME280;5610;52.154;9.198;2023-05-03T04:14:52;102046.78;;;4.08;100.00
11114;BME280;5610;52.154;9.198;2023-05-03T04:17:37;102049.28;;;4.19;100.00
11114;BME280;5610;52.154;9.198;2023-05-03T04:20:24;102042.28;;;4.18;100.00
11114;BME280;5610;52.154;9.198;2023-05-03T04:23:11;102046.75;;;4.11;100.00
11114;BME280;5610;52.154;9.198;2023-05-03T04:25:56;102047.44;;;4.26;100.00
11114;BME280;5610;52.154;9.198;2023-05-03T04:28:44;102056.31;;;4.20;100.00
11114;BME280;5610;52.154;9.198;2023-05-03T04:31:30;102042.94;;;4.34;100.00
11114;BME280;5610;52.154;9.198;2023-05-03T04:34:15;102048.19;;;4.37;100.00
11114;BME280;5610;52.154;9.198;2023-05-03T04:37:05;102047.25;;;4.41;100.00
11114;BME280;5610;52.154;9.198;2023-05-03T04:39:51;102048.91;;;4.48;100.00
11114;BME280;5610;52.154;9.198;2023-05-03T04:42:38;102048.91;;;4.48;100.00
11114;BME280;5610;52.154;9.198;2023-05-03T04:45:26;102039.88;;;4.63;100.00
11114;BME280;5610;52.154;9.198;2023-05-03T04:48:12;102054.13;;;4.53;100.00
11114;BME280;5610;52.154;9.198;2023-05-03T04:50:57;102051.25;;;4.69;100.00
11114;BME280;5610;52.154;9.198;2023-05-03T04:53:42;102060.03;;;4.70;100.00
11114;BME280;5610;52.154;9.198;2023-05-03T04:56:33;102058.16;;;4.77;100.00
11114;BME280;5610;52.154;9.198;2023-05-03T04:59:27;102062.31;;;4.93;100.00
11114;BME280;5610;52.154;9.198;2023-05-03T05:02:13;102064.00;;;4.99;100.00
11114;BME280;5610;52.154;9.198;2023-05-03T05:04:59;102069.38;;;4.94;100.00
11114;BME280;5610;52.154;9.198;2023-05-03T05:07:44;102077.81;;;5.14;100.00
11114;BME280;5610;52.154;9.198;2023-05-03T05:10:30;102071.56;;;5.20;100.00
11114;BME280;5610;52.154;9.198;2023-05-03T05:13:16;102075.97;;;5.21;100.00
11114;BME280;5610;52.154;9.198;2023-05-03T05:16:01;102073.22;;;5.27;100.00
11114;BME280;5610;52.154;9.198;2023-05-03T05:18:48;102072.22;;;5.36;100.00
11114;BME280;5610;52.154;9.198;2023-05-03T05:21:35;102076.50;;;5.41;100.00
11114;BME280;5610;52.154;9.198;2023-05-03T05:24:20;102071.06;;;5.49;100.00
11114;BME280;5610;52.154;9.198;2023-05-03T05:27:07;102078.97;;;5.52;100.00
11114;BME280;5610;52.154;9.198;2023-05-03T05:29:53;102071.03;;;5.52;100.00
11114;BME280;5610;52.154;9.198;2023-05-03T05:32:38;102074.25;;;5.69;100.00
11114;BME280;5610;52.154;9.198;2023-05-03T05:35:27;102080.22;;;5.81;100.00
11114;BME280;5610;52.154;9.198;2023-05-03T05:38:12;102081.84;;;5.88;100.00
11114;BME280;5610;52.154;9.198;2023-05-03T05:40:58;102069.25;;;6.02;100.00
11114;BME280;5610;52.154;9.198;2023-05-03T05:43:43;102077.06;;;6.08;100.00
11114;BME280;5610;52.154;9.198;2023-05-03T05:46:29;102073.47;;;6.11;100.00
11114;BME280;5610;52.154;9.198;2023-05-03T05:49:14;102081.22;;;6.20;100.00
11114;BME280;5610;52.154;9.198;2023-05-03T05:52:02;102074.06;;;6.25;100.00
11114;BME280;5610;52.154;9.198;2023-05-03T05:54:47;102075.72;;;6.30;100.00
11114;BME280;5610;52.154;9.198;2023-05-03T05:57:32;102081.97;;;6.26;100.00
11114;BME280;5610;52.154;9.198;2023-05-03T06:00:19;102084.34;;;6.40;100.00
11114;BME280;5610;52.154;9.198;2023-05-03T06:03:04;102078.84;;;6.49;100.00
11114;BME280;5610;52.154;9.198;2023-05-03T06:05:50;102092.81;;;6.57;100.00
11114;BME280;5610;52.154;9.198;2023-05-03T06:08:36;102098.88;;;6.63;100.00
11114;BME280;5610;52.154;9.198;2023-05-03T06:11:22;102082.66;;;6.76;100.00
11114;BME280;5610;52.154;9.198;2023-05-03T06:14:08;102102.78;;;6.83;100.00
11114;BME280;5610;52.154;9.198;2023-05-03T06:16:55;102106.16;;;6.92;100.00
11114;BME280;5610;52.154;9.198;2023-05-03T06:19:41;102112.19;;;6.98;100.00
11114;BME280;5610;52.154;9.198;2023-05-03T06:22:27;102110.19;;;7.08;100.00
11114;BME280;5610;52.154;9.198;2023-05-03T06:25:13;102109.91;;;7.20;100.00
11114;BME280;5610;52.154;9.198;2023-05-03T06:28:00;102106.06;;;7.32;100.00
11114;BME280;5610;52.154;9.198;2023-05-03T06:30:49;102108.72;;;7.33;100.00
11114;BME280;5610;52.154;9.198;2023-05-03T06:33:35;102110.09;;;7.48;100.00
11114;BME280;5610;52.154;9.198;2023-05-03T06:36:20;102110.63;;;7.61;100.00
11114;BME280;5610;52.154;9.198;2023-05-03T06:39:05;102115.56;;;7.76;100.00
11114;BME280;5610;52.154;9.198;2023-05-03T06:41:53;102116.22;;;7.84;100.00
11114;BME280;5610;52.154;9.198;2023-05-03T06:44:39;102119.50;;;7.94;100.00
11114;BME280;5610;52.154;9.198;2023-05-03T06:47:24;102123.53;;;8.09;100.00
11114;BME280;5610;52.154;9.198;2023-05-03T06:50:09;102117.97;;;8.18;100.00
11114;BME280;5610;52.154;9.198;2023-05-03T06:52:55;102115.75;;;8.34;100.00
11114;BME280;5610;52.154;9.198;2023-05-03T06:55:42;102119.66;;;8.53;100.00
11114;BME280;5610;52.154;9.198;2023-05-03T06:58:29;102117.59;;;8.63;100.00
11114;BME280;5610;52.154;9.198;2023-05-03T07:01:14;102112.78;;;8.75;100.00
11114;BME280;5610;52.154;9.198;2023-05-03T07:04:00;102100.00;;;8.87;100.00
11114;BME280;5610;52.154;9.198;2023-05-03T07:06:46;102105.69;;;9.04;100.00
11114;BME280;5610;52.154;9.198;2023-05-03T07:09:31;102122.88;;;9.20;100.00
11114;BME280;5610;52.154;9.198;2023-05-03T07:12:16;102113.53;;;9.35;100.00
11114;BME280;5610;52.154;9.198;2023-05-03T07:15:03;102108.66;;;9.48;100.00
11114;BME280;5610;52.154;9.198;2023-05-03T07:17:49;102108.25;;;9.60;100.00
11114;BME280;5610;52.154;9.198;2023-05-03T07:20:34;102105.41;;;9.66;100.00
11114;BME280;5610;52.154;9.198;2023-05-03T07:23:19;102110.00;;;9.86;100.00
11114;BME280;5610;52.154;9.198;2023-05-03T07:26:04;102113.97;;;9.99;100.00
11114;BME280;5610;52.154;9.198;2023-05-03T07:28:50;102112.69;;;10.11;100.00
11114;BME280;5610;52.154;9.198;2023-05-03T07:31:37;102114.13;;;10.19;100.00
11114;BME280;5610;52.154;9.198;2023-05-03T07:34:22;102108.72;;;9.98;100.00
11114;BME280;5610;52.154;9.198;2023-05-03T07:37:08;102114.09;;;9.96;100.00
11114;BME280;5610;52.154;9.198;2023-05-03T07:39:53;102104.38;;;9.95;100.00
11114;BME280;5610;52.154;9.198;2023-05-03T07:42:38;102097.56;;;10.11;100.00
11114;BME280;5610;52.154;9.198;2023-05-03T07:45:23;102092.53;;;10.52;100.00
11114;BME280;5610;52.154;9.198;2023-05-03T07:48:10;102090.16;;;10.90;85.86
11114;BME280;5610;52.154;9.198;2023-05-03T07:50:55;102101.81;;;11.31;77.43
11114;BME280;5610;52.154;9.198;2023-05-03T07:53:40;102087.78;;;11.68;73.34
11114;BME280;5610;52.154;9.198;2023-05-03T07:56:26;102085.13;;;12.09;72.22
11114;BME280;5610;52.154;9.198;2023-05-03T07:59:11;102081.94;;;12.01;65.23
11114;BME280;5610;52.154;9.198;2023-05-03T08:01:56;102079.31;;;12.20;64.07
11114;BME280;5610;52.154;9.198;2023-05-03T08:04:43;102072.25;;;12.37;64.97
11114;BME280;5610;52.154;9.198;2023-05-03T08:07:28;102071.44;;;12.73;65.20
11114;BME280;5610;52.154;9.198;2023-05-03T08:10:13;102081.84;;;12.98;67.30
11114;BME280;5610;52.154;9.198;2023-05-03T08:12:59;102080.13;;;13.14;67.90
11114;BME280;5610;52.154;9.198;2023-05-03T08:15:44;102075.34;;;13.40;68.79
11114;BME280;5610;52.154;9.198;2023-05-03T08:18:29;102079.91;;;13.90;64.87
11114;BME280;5610;52.154;9.198;2023-05-03T08:21:16;102083.81;;;14.33;60.16
11114;BME280;5610;52.154;9.198;2023-05-03T08:24:02;102087.38;;;14.67;55.14
11114;BME280;5610;52.154;9.198;2023-05-03T08:26:49;102072.22;;;14.97;59.10
11114;BME280;5610;52.154;9.198;2023-05-03T08:29:34;102072.25;;;15.27;57.80
11114;BME280;5610;52.154;9.198;2023-05-03T08:32:20;102063.84;;;15.33;56.93
11114;BME280;5610;52.154;9.198;2023-05-03T08:35:05;102070.50;;;14.96;53.81
11114;BME280;5610;52.154;9.198;2023-05-03T08:37:52;102068.50;;;14.84;52.48
11114;BME280;5610;52.154;9.198;2023-05-03T08:40:38;102071.94;;;14.54;53.15
11114;BME280;5610;52.154;9.198;2023-05-03T08:43:26;102066.72;;;13.85;53.79
11114;BME280;5610;52.154;9.198;2023-05-03T08:46:12;102064.50;;;13.93;55.25
11114;BME280;5610;52.154;9.198;2023-05-03T08:48:57;102075.53;;;13.87;57.95
11114;BME280;5610;52.154;9.198;2023-05-03T08:51:44;102066.63;;;14.04;59.44
11114;BME280;5610;52.154;9.198;2023-05-03T08:54:31;102062.50;;;14.47;58.30
11114;BME280;5610;52.154;9.198;2023-05-03T08:57:17;102058.47;;;14.88;57.34
11114;BME280;5610;52.154;9.198;2023-05-03T09:00:03;102065.56;;;14.89;54.05
11114;BME280;5610;52.154;9.198;2023-05-03T09:02:53;102060.66;;;15.27;55.21
11114;BME280;5610;52.154;9.198;2023-05-03T09:05:38;102060.69;;;15.41;54.66
11114;BME280;5610;52.154;9.198;2023-05-03T09:08:27;102055.41;;;15.39;54.53
11114;BME280;5610;52.154;9.198;2023-05-03T09:11:20;102055.38;;;15.55;55.69
11114;BME280;5610;52.154;9.198;2023-05-03T09:14:10;102049.63;;;15.31;54.79
11114;BME280;5610;52.154;9.198;2023-05-03T09:17:12;102039.59;;;15.65;55.72
11114;BME280;5610;52.154;9.198;2023-05-03T09:19:58;102049.28;;;15.68;54.35
11114;BME280;5610;52.154;9.198;2023-05-03T09:22:49;102045.41;;;16.16;55.04
11114;BME280;5610;52.154;9.198;2023-05-03T09:25:42;102046.06;;;16.89;53.07
11114;BME280;5610;52.154;9.198;2023-05-03T09:28:39;102049.97;;;17.65;50.92
11114;BME280;5610;52.154;9.198;2023-05-03T09:31:25;102061.31;;;17.70;52.56
11114;BME280;5610;52.154;9.198;2023-05-03T09:34:22;102052.81;;;18.14;49.76
11114;BME280;5610;52.154;9.198;2023-05-03T09:37:07;102053.59;;;17.91;47.75
11114;BME280;5610;52.154;9.198;2023-05-03T09:40:04;102048.53;;;17.99;48.54
11114;BME280;5610;52.154;9.198;2023-05-03T09:43:11;102044.78;;;18.38;48.54
11114;BME280;5610;52.154;9.198;2023-05-03T09:46:11;102046.16;;;18.56;48.57
11114;BME280;5610;52.154;9.198;2023-05-03T09:48:56;102043.66;;;18.79;47.17
11114;BME280;5610;52.154;9.198;2023-05-03T09:51:41;102044.78;;;18.38;45.89
11114;BME280;5610;52.154;9.198;2023-05-03T09:54:27;102043.44;;;17.94;45.57
11114;BME280;5610;52.154;9.198;2023-05-03T09:57:14;102041.66;;;18.31;44.36
11114;BME280;5610;52.154;9.198;2023-05-03T09:59:59;102043.75;;;18.77;47.17
11114;BME280;5610;52.154;9.198;2023-05-03T10:02:48;102040.59;;;19.31;45.36
11114;BME280;5610;52.154;9.198;2023-05-03T10:05:39;102032.97;;;18.77;42.79
11114;BME280;5610;52.154;9.198;2023-05-03T10:08:36;102031.88;;;18.80;44.38
11114;BME280;5610;52.154;9.198;2023-05-03T10:11:25;102031.16;;;18.52;44.80
11114;BME280;5610;52.154;9.198;2023-05-03T10:14:11;102028.31;;;19.03;44.07
11114;BME280;5610;52.154;9.198;2023-05-03T10:16:58;102032.97;;;19.25;44.49
11114;BME280;5610;52.154;9.198;2023-05-03T10:19:52;102026.81;;;19.58;43.48
11114;BME280;5610;52.154;9.198;2023-05-03T10:23:08;102025.59;;;19.62;43.53
11114;BME280;5610;52.154;9.198;2023-05-03T10:26:14;102018.75;;;18.50;43.53
11114;BME280;5610;52.154;9.198;2023-05-03T10:29:00;102021.75;;;18.08;44.27
11114;BME280;5610;52.154;9.198;2023-05-03T10:31:46;102012.53;;;19.21;44.51
11114;BME280;5610;52.154;9.198;2023-05-03T10:34:33;102017.88;;;19.34;44.30
11114;BME280;5610;52.154;9.198;2023-05-03T10:37:24;102011.66;;;20.47;42.92
11114;BME280;5610;52.154;9.198;2023-05-03T10:40:12;102006.78;;;21.16;40.64
11114;BME280;5610;52.154;9.198;2023-05-03T10:42:59;102006.09;;;22.38;39.06
11114;BME280;5610;52.154;9.198;2023-05-03T10:45:44;102005.97;;;23.09;39.04
11114;BME280;5610;52.154;9.198;2023-05-03T10:48:29;102002.59;;;24.57;37.02
11114;BME280;5610;52.154;9.198;2023-05-03T10:51:31;101988.31;;;26.89;33.79
11114;BME280;5610;52.154;9.198;2023-05-03T10:54:20;101990.22;;;27.53;31.89
11114;BME280;5610;52.154;9.198;2023-05-03T10:57:06;101985.94;;;29.62;30.18
11114;BME280;5610;52.154;9.198;2023-05-03T10:59:52;101993.78;;;29.79;28.67
11114;BME280;5610;52.154;9.198;2023-05-03T11:02:41;101978.63;;;31.22;28.23
11114;BME280;5610;52.154;9.198;2023-05-03T11:05:34;101976.38;;;32.57;26.25
11114;BME280;5610;52.154;9.198;2023-05-03T11:08:21;101975.59;;;33.96;26.29
11114;BME280;5610;52.154;9.198;2023-05-03T11:11:10;101966.78;;;35.33;24.17
11114;BME280;5610;52.154;9.198;2023-05-03T11:13:55;101964.97;;;35.89;23.72
11114;BME280;5610;52.154;9.198;2023-05-03T11:16:41;101961.19;;;36.38;22.73
11114;BME280;5610;52.154;9.198;2023-05-03T11:19:31;101969.88;;;37.44;22.82
11114;BME280;5610;52.154;9.198;2023-05-03T11:22:17;101966.13;;;37.50;22.34
11114;BME280;5610;52.154;9.198;2023-05-03T11:25:03;101954.03;;;35.94;22.77
11114;BME280;5610;52.154;9.198;2023-05-03T11:27:49;101958.00;;;36.35;22.96
11114;BME280;5610;52.154;9.198;2023-05-03T11:30:35;101956.34;;;35.97;23.29
11114;BME280;5610;52.154;9.198;2023-05-03T11:33:20;101943.50;;;37.46;22.03
11114;BME280;5610;52.154;9.198;2023-05-03T11:36:07;101930.09;;;37.43;21.98
11114;BME280;5610;52.154;9.198;2023-05-03T11:38:52;101932.81;;;37.31;21.98
11114;BME280;5610;52.154;9.198;2023-05-03T11:41:37;101928.03;;;38.26;21.96
11114;BME280;5610;52.154;9.198;2023-05-03T11:44:26;101917.25;;;39.59;21.18
11114;BME280;5610;52.154;9.198;2023-05-03T11:47:11;101919.47;;;40.00;21.50
11114;BME280;5610;52.154;9.198;2023-05-03T11:49:56;101910.72;;;40.89;20.26
11114;BME280;5610;52.154;9.198;2023-05-03T11:52:42;101899.97;;;42.13;20.06
11114;BME280;5610;52.154;9.198;2023-05-03T11:55:27;101899.91;;;41.93;20.11
11114;BME280;5610;52.154;9.198;2023-05-03T11:58:14;101906.28;;;41.78;19.81
11114;BME280;5610;52.154;9.198;2023-05-03T12:01:02;101905.69;;;40.38;19.94
11114;BME280;5610;52.154;9.198;2023-05-03T12:03:52;101905.19;;;40.68;19.34
11114;BME280;5610;52.154;9.198;2023-05-03T12:06:37;101902.66;;;40.39;20.33
11114;BME280;5610;52.154;9.198;2023-05-03T12:09:23;101900.28;;;37.90;21.17
11114;BME280;5610;52.154;9.198;2023-05-03T12:12:09;101892.06;;;37.84;21.11
11114;BME280;5610;52.154;9.198;2023-05-03T12:14:55;101886.59;;;38.01;20.86
11114;BME280;5610;52.154;9.198;2023-05-03T12:17:42;101879.47;;;38.79;20.52
11114;BME280;5610;52.154;9.198;2023-05-03T12:20:29;101881.69;;;39.49;20.43
11114;BME280;5610;52.154;9.198;2023-05-03T12:23:15;101881.25;;;39.79;20.68
11114;BME280;5610;52.154;9.198;2023-05-03T12:26:00;101872.47;;;40.95;21.04
11114;BME280;5610;52.154;9.198;2023-05-03T12:28:47;101880.59;;;41.91;20.05
11114;BME280;5610;52.154;9.198;2023-05-03T12:31:32;101880.56;;;41.81;19.71
11114;BME280;5610;52.154;9.198;2023-05-03T12:34:18;101885.22;;;41.70;18.45
11114;BME280;5610;52.154;9.198;2023-05-03T12:37:04;101876.78;;;39.39;19.90
11114;BME280;5610;52.154;9.198;2023-05-03T12:39:49;101869.34;;;39.62;20.02
11114;BME280;5610;52.154;9.198;2023-05-03T12:42:34;101877.03;;;39.98;19.67
11114;BME280;5610;52.154;9.198;2023-05-03T12:45:19;101863.69;;;40.27;20.16
11114;BME280;5610;52.154;9.198;2023-05-03T12:48:04;101865.22;;;41.41;19.81
11114;BME280;5610;52.154;9.198;2023-05-03T12:50:51;101865.31;;;41.09;19.41
11114;BME280;5610;52.154;9.198;2023-05-03T12:53:37;101856.91;;;41.09;19.49
11114;BME280;5610;52.154;9.198;2023-05-03T12:56:22;101858.94;;;40.87;19.32
11114;BME280;5610;52.154;9.198;2023-05-03T12:59:07;101847.31;;;41.42;19.35
11114;BME280;5610;52.154;9.198;2023-05-03T13:01:53;101854.34;;;41.50;18.93
11114;BME280;5610;52.154;9.198;2023-05-03T13:04:38;101845.75;;;41.67;19.07
11114;BME280;5610;52.154;9.198;2023-05-03T13:07:25;101842.84;;;42.09;18.83
11114;BME280;5610;52.154;9.198;2023-05-03T13:10:11;101843.72;;;42.20;19.19
11114;BME280;5610;52.154;9.198;2023-05-03T13:12:56;101835.91;;;42.47;18.58
11114;BME280;5610;52.154;9.198;2023-05-03T13:15:41;101826.41;;;42.79;18.11
11114;BME280;5610;52.154;9.198;2023-05-03T13:18:26;101832.81;;;42.39;18.22
11114;BME280;5610;52.154;9.198;2023-05-03T13:21:12;101824.78;;;41.69;19.04
11114;BME280;5610;52.154;9.198;2023-05-03T13:23:58;101820.44;;;42.14;19.03
11114;BME280;5610;52.154;9.198;2023-05-03T13:26:43;101814.00;;;43.05;19.00
11114;BME280;5610;52.154;9.198;2023-05-03T13:29:29;101804.50;;;42.86;18.48
11114;BME280;5610;52.154;9.198;2023-05-03T13:32:14;101806.63;;;43.40;19.43
11114;BME280;5610;52.154;9.198;2023-05-03T13:34:59;101805.59;;;43.16;19.52
11114;BME280;5610;52.154;9.198;2023-05-03T13:37:44;101809.53;;;42.28;18.80
11114;BME280;5610;52.154;9.198;2023-05-03T13:40:31;101810.06;;;41.94;18.75
11114;BME280;5610;52.154;9.198;2023-05-03T13:43:17;101799.13;;;41.88;18.39
11114;BME280;5610;52.154;9.198;2023-05-03T13:46:02;101800.84;;;42.19;18.65
11114;BME280;5610;52.154;9.198;2023-05-03T13:48:47;101801.81;;;41.67;19.29
11114;BME280;5610;52.154;9.198;2023-05-03T13:51:33;101781.72;;;43.13;18.38
11114;BME280;5610;52.154;9.198;2023-05-03T13:54:18;101787.66;;;41.94;18.95
11114;BME280;5610;52.154;9.198;2023-05-03T13:57:05;101789.78;;;41.72;17.85
11114;BME280;5610;52.154;9.198;2023-05-03T13:59:50;101791.94;;;41.39;17.88
11114;BME280;5610;52.154;9.198;2023-05-03T14:02:35;101784.94;;;40.57;21.06
11114;BME280;5610;52.154;9.198;2023-05-03T14:05:20;101777.28;;;41.27;18.44
11114;BME280;5610;52.154;9.198;2023-05-03T14:08:05;101774.31;;;40.59;17.97
11114;BME280;5610;52.154;9.198;2023-05-03T14:10:50;101771.16;;;41.30;18.20
11114;BME280;5610;52.154;9.198;2023-05-03T14:13:37;101761.47;;;41.58;19.59
11114;BME280;5610;52.154;9.198;2023-05-03T14:16:23;101757.09;;;40.73;19.51
11114;BME280;5610;52.154;9.198;2023-05-03T14:19:09;101764.00;;;40.01;19.83
11114;BME280;5610;52.154;9.198;2023-05-03T14:21:55;101749.78;;;40.61;20.31
11114;BME280;5610;52.154;9.198;2023-05-03T14:24:42;101754.25;;;37.64;21.40
11114;BME280;5610;52.154;9.198;2023-05-03T14:27:27;101751.84;;;35.19;23.28
11114;BME280;5610;52.154;9.198;2023-05-03T14:30:15;101754.94;;;32.75;25.14
11114;BME280;5610;52.154;9.198;2023-05-03T14:33:00;101747.69;;;31.12;25.91
11114;BME280;5610;52.154;9.198;2023-05-03T14:35:45;101747.53;;;29.57;27.81
11114;BME280;5610;52.154;9.198;2023-05-03T14:38:31;101745.25;;;29.02;28.93
11114;BME280;5610;52.154;9.198;2023-05-03T14:41:16;101741.84;;;28.01;29.04
11114;BME280;5610;52.154;9.198;2023-05-03T14:44:01;101743.81;;;27.53;32.05